createdAt,value
2022-12-15T00:00:50.326Z,0.827026
2022-12-15T00:02:00.012Z,0.806885
2022-12-15T00:03:09.899Z,0.796814
2022-12-15T00:04:19.515Z,0.796814
2022-12-15T00:05:28.170Z,0.796814
2022-12-15T00:06:37.919Z,0.766602
2022-12-15T00:07:47.566Z,0.756531
2022-12-15T00:08:55.254Z,0.736389
2022-12-15T00:10:03.949Z,0.726318
2022-12-15T00:11:13.615Z,0.686035
2022-12-15T00:12:23.296Z,0.675964
2022-12-15T00:13:34.353Z,0.655823
2022-12-15T00:14:43.790Z,0.655823
2022-12-15T00:15:52.574Z,0.675964
2022-12-15T00:17:02.176Z,0.696106
2022-12-15T00:18:10.878Z,0.645752
2022-12-15T00:19:19.554Z,0.575256
2022-12-15T00:20:29.247Z,0.504761
2022-12-15T00:21:38.925Z,0.464478
2022-12-15T00:22:48.598Z,0.444336
2022-12-15T00:23:57.306Z,0.434265
2022-12-15T00:25:06.000Z,0.393982
2022-12-15T00:26:15.677Z,0.37384
2022-12-15T00:27:23.350Z,0.37384
2022-12-15T00:28:33.029Z,0.36377
2022-12-15T00:29:42.776Z,0.343628
2022-12-15T00:30:50.521Z,0.323486
2022-12-15T00:32:00.188Z,0.323486
2022-12-15T00:33:09.828Z,0.283203
2022-12-15T00:34:17.485Z,0.293274
2022-12-15T00:35:27.206Z,0.323486
2022-12-15T00:36:34.889Z,0.343628
2022-12-15T00:37:44.528Z,0.36377
2022-12-15T00:38:56.140Z,0.393982
2022-12-15T00:40:04.848Z,0.393982
2022-12-15T00:41:14.536Z,0.36377
2022-12-15T00:42:23.225Z,0.37384
2022-12-15T00:43:31.434Z,0.37384
2022-12-15T00:44:40.556Z,0.36377
2022-12-15T00:45:48.275Z,0.313416
2022-12-15T00:46:56.979Z,0.293274
2022-12-15T00:48:05.621Z,0.263062
2022-12-15T00:49:13.329Z,0.263062
2022-12-15T00:50:23.034Z,0.283203
2022-12-15T00:51:31.736Z,0.293274
2022-12-15T00:52:39.377Z,0.323486
2022-12-15T00:53:49.095Z,0.343628
2022-12-15T00:54:56.749Z,0.323486
2022-12-15T00:56:05.409Z,0.293274
2022-12-15T00:57:15.108Z,0.283203
2022-12-15T00:58:22.769Z,0.252991
2022-12-15T00:59:32.470Z,0.212708
2022-12-15T01:00:41.240Z,0.222778
2022-12-15T01:01:50.161Z,0.192566
2022-12-15T01:02:59.974Z,0.162354
2022-12-15T01:04:08.435Z,0.192566
2022-12-15T01:05:17.111Z,0.152283
2022-12-15T01:06:26.802Z,0.162354
2022-12-15T01:07:34.473Z,0.12207
2022-12-15T01:08:44.152Z,0.12207
2022-12-15T01:09:53.828Z,0.101929
2022-12-15T01:11:01.544Z,0.12207
2022-12-15T01:12:10.253Z,0.112
2022-12-15T01:13:17.909Z,0.101929
2022-12-15T01:14:27.552Z,0.112
2022-12-15T01:15:37.254Z,0.112
2022-12-15T01:16:46.938Z,0.12207
2022-12-15T01:17:56.620Z,0.162354
2022-12-15T01:19:06.386Z,0.162354
2022-12-15T01:20:15.073Z,0.192566
2022-12-15T01:21:25.407Z,0.162354
2022-12-15T01:22:33.500Z,0.152283
2022-12-15T01:23:42.187Z,0.152283
2022-12-15T01:24:50.851Z,0.12207
2022-12-15T01:25:58.567Z,0.12207
2022-12-15T01:27:08.264Z,0.12207
2022-12-15T01:28:15.979Z,0.182495
2022-12-15T01:29:25.644Z,0.212708
2022-12-15T01:30:34.343Z,0.192566
2022-12-15T01:31:44.240Z,0.212708
2022-12-15T01:32:53.742Z,0.222778
2022-12-15T01:34:01.495Z,0.222778
2022-12-15T01:35:11.178Z,0.222778
2022-12-15T01:36:21.850Z,0.232849
2022-12-15T01:37:29.509Z,0.252991
2022-12-15T01:38:39.203Z,0.283203
2022-12-15T01:39:49.863Z,0.293274
2022-12-15T01:40:58.525Z,0.313416
2022-12-15T01:42:07.202Z,0.293274
2022-12-15T01:43:14.883Z,0.313416
2022-12-15T01:44:23.536Z,0.293274
2022-12-15T01:45:33.338Z,0.293274
2022-12-15T01:46:41.063Z,0.293274
2022-12-15T01:47:50.657Z,0.283203
2022-12-15T01:48:59.326Z,0.263062
2022-12-15T01:50:07.165Z,0.283203
2022-12-15T01:51:16.746Z,0.283203
2022-12-15T01:52:26.413Z,0.293274
2022-12-15T01:53:35.067Z,0.313416
2022-12-15T01:54:45.746Z,0.313416
2022-12-15T01:55:54.398Z,0.323486
2022-12-15T01:57:04.126Z,0.323486
2022-12-15T01:58:12.786Z,0.323486
2022-12-15T01:59:20.438Z,0.313416
2022-12-15T02:00:30.168Z,0.313416
2022-12-15T02:01:38.835Z,0.293274
2022-12-15T02:02:48.579Z,0.283203
2022-12-15T02:03:57.213Z,0.283203
2022-12-15T02:05:06.875Z,0.252991
2022-12-15T02:06:16.563Z,0.232849
2022-12-15T02:07:26.204Z,0.212708
2022-12-15T02:08:33.950Z,0.192566
2022-12-15T02:09:43.692Z,0.152283
2022-12-15T02:10:51.334Z,0.101929
2022-12-15T02:12:00.002Z,0.081787
2022-12-15T02:13:09.658Z,0.101929
2022-12-15T02:14:18.348Z,0.12207
2022-12-15T02:15:28.076Z,0.152283
2022-12-15T02:16:36.816Z,0.112
2022-12-15T02:17:44.447Z,0.112
2022-12-15T02:18:54.193Z,0.071716
2022-12-15T02:20:01.923Z,0.081787
2022-12-15T02:21:11.545Z,0.101929
2022-12-15T02:22:21.238Z,0.101929
2022-12-15T02:23:30.235Z,0.112
2022-12-15T02:24:39.609Z,0.081787
2022-12-15T02:25:50.542Z,0.081787
2022-12-15T02:26:58.975Z,0.071716
2022-12-15T02:28:08.628Z,0.081787
2022-12-15T02:29:17.335Z,0.101929
2022-12-15T02:30:25.992Z,0.12207
2022-12-15T02:31:35.781Z,0.12207
2022-12-15T02:32:44.379Z,0.12207
2022-12-15T02:33:54.024Z,0.112
2022-12-15T02:35:02.719Z,0.112
2022-12-15T02:36:10.405Z,0.112
2022-12-15T02:37:20.104Z,0.101929
2022-12-15T02:38:28.908Z,0.081787
2022-12-15T02:39:37.579Z,0.051575
2022-12-15T02:40:47.293Z,0.041504
2022-12-15T02:41:56.970Z,0.041504
2022-12-15T02:43:06.606Z,0.001221
2022-12-15T02:44:15.272Z,0.031433
2022-12-15T02:45:24.010Z,0.041504
2022-12-15T02:46:33.582Z,0.071716
2022-12-15T02:47:42.257Z,0.112
2022-12-15T02:48:50.957Z,0.081787
2022-12-15T02:50:00.628Z,0.051575
2022-12-15T02:51:10.319Z,0.041504
2022-12-15T02:52:20.001Z,0.031433
2022-12-15T02:53:29.160Z,0.011292
2022-12-15T02:54:36.378Z,0.001221
2022-12-15T02:55:46.028Z,0.001221
2022-12-15T02:56:54.664Z,-0.018921
2022-12-15T02:58:04.339Z,-0.018921
2022-12-15T02:59:14.007Z,0.001221
2022-12-15T03:00:21.720Z,0.001221
2022-12-15T03:01:31.455Z,0.001221
2022-12-15T03:02:40.188Z,0.011292
2022-12-15T03:03:48.723Z,0.001221
2022-12-15T03:04:58.418Z,0.001221
2022-12-15T03:06:07.104Z,-0.028992
2022-12-15T03:07:15.773Z,-0.059204
2022-12-15T03:08:25.469Z,-0.069275
2022-12-15T03:09:35.144Z,-0.069275
2022-12-15T03:10:44.863Z,-0.099487
2022-12-15T03:11:54.517Z,-0.109558
2022-12-15T03:13:02.197Z,-0.139771
2022-12-15T03:14:11.867Z,-0.139771
2022-12-15T03:15:21.539Z,-0.139771
2022-12-15T03:16:32.249Z,-0.180054
2022-12-15T03:17:41.907Z,-0.149841
2022-12-15T03:18:51.596Z,-0.200195
2022-12-15T03:20:00.257Z,-0.230408
2022-12-15T03:21:09.919Z,-0.230408
2022-12-15T03:22:17.582Z,-0.230408
2022-12-15T03:23:27.378Z,-0.230408
2022-12-15T03:24:36.971Z,-0.210266
2022-12-15T03:25:46.624Z,-0.210266
2022-12-15T03:26:56.350Z,-0.210266
2022-12-15T03:28:03.968Z,-0.250549
2022-12-15T03:29:13.664Z,-0.250549
2022-12-15T03:30:21.344Z,-0.230408
2022-12-15T03:31:30.038Z,-0.200195
2022-12-15T03:32:39.720Z,-0.210266
2022-12-15T03:33:47.384Z,-0.200195
2022-12-15T03:34:57.080Z,-0.200195
2022-12-15T03:36:05.770Z,-0.200195
2022-12-15T03:37:14.433Z,-0.200195
2022-12-15T03:38:24.092Z,-0.250549
2022-12-15T03:39:32.788Z,-0.280762
2022-12-15T03:40:42.495Z,-0.280762
2022-12-15T03:41:52.184Z,-0.310974
2022-12-15T03:42:59.902Z,-0.341187
2022-12-15T03:44:09.522Z,-0.341187
2022-12-15T03:45:18.201Z,-0.38147
2022-12-15T03:46:25.896Z,-0.38147
2022-12-15T03:47:35.555Z,-0.411682
2022-12-15T03:48:44.216Z,-0.462036
2022-12-15T03:49:52.900Z,-0.472107
2022-12-15T03:51:02.593Z,-0.441895
2022-12-15T03:52:11.322Z,-0.431824
2022-12-15T03:53:21.001Z,-0.391541
2022-12-15T03:54:30.656Z,-0.391541
2022-12-15T03:55:40.367Z,-0.411682
2022-12-15T03:56:50.030Z,-0.411682
2022-12-15T03:57:58.709Z,-0.391541
2022-12-15T03:59:07.375Z,-0.411682
2022-12-15T04:00:17.039Z,-0.411682
2022-12-15T04:01:25.826Z,-0.431824
2022-12-15T04:02:35.456Z,-0.411682
2022-12-15T04:03:43.194Z,-0.391541
2022-12-15T04:04:50.783Z,-0.351257
2022-12-15T04:06:00.455Z,-0.341187
2022-12-15T04:07:09.158Z,-0.351257
2022-12-15T04:08:18.822Z,-0.361328
2022-12-15T04:09:28.510Z,-0.361328
2022-12-15T04:10:36.163Z,-0.351257
2022-12-15T04:11:45.818Z,-0.361328
2022-12-15T04:12:54.483Z,-0.391541
2022-12-15T04:14:03.157Z,-0.431824
2022-12-15T04:15:13.882Z,-0.391541
2022-12-15T04:16:22.641Z,-0.38147
2022-12-15T04:17:32.239Z,-0.361328
2022-12-15T04:18:41.895Z,-0.341187
2022-12-15T04:19:49.627Z,-0.341187
2022-12-15T04:20:59.350Z,-0.341187
2022-12-15T04:22:08.017Z,-0.341187
2022-12-15T04:23:18.637Z,-0.290833
2022-12-15T04:24:28.312Z,-0.321045
2022-12-15T04:25:37.007Z,-0.351257
2022-12-15T04:26:45.712Z,-0.361328
2022-12-15T04:27:59.923Z,-0.391541
2022-12-15T04:29:05.027Z,-0.391541
2022-12-15T04:30:14.714Z,-0.391541
2022-12-15T04:31:23.487Z,-0.38147
2022-12-15T04:32:32.043Z,-0.361328
2022-12-15T04:33:41.766Z,-0.351257
2022-12-15T04:34:49.445Z,-0.351257
2022-12-15T04:35:58.115Z,-0.391541
2022-12-15T04:37:06.770Z,-0.431824
2022-12-15T04:38:14.455Z,-0.411682
2022-12-15T04:39:24.101Z,-0.431824
2022-12-15T04:40:32.766Z,-0.411682
2022-12-15T04:41:41.413Z,-0.38147
2022-12-15T04:42:51.136Z,-0.38147
2022-12-15T04:44:00.992Z,-0.351257
2022-12-15T04:45:13.178Z,-0.341187
2022-12-15T04:47:55.954Z,-0.321045
2022-12-15T04:49:04.638Z,-0.341187
2022-12-15T04:50:14.311Z,-0.321045
2022-12-15T04:51:24.237Z,-0.310974
2022-12-15T04:52:33.672Z,-0.361328
2022-12-15T04:53:43.347Z,-0.38147
2022-12-15T04:54:51.049Z,-0.38147
2022-12-15T04:56:00.773Z,-0.391541
2022-12-15T04:57:11.427Z,-0.38147
2022-12-15T04:58:21.101Z,-0.391541
2022-12-15T04:59:30.770Z,-0.391541
2022-12-15T05:00:38.453Z,-0.361328
2022-12-15T05:01:48.241Z,-0.361328
2022-12-15T05:02:57.866Z,-0.361328
2022-12-15T05:04:05.579Z,-0.38147
2022-12-15T05:05:15.263Z,-0.391541
2022-12-15T05:06:24.994Z,-0.391541
2022-12-15T05:07:34.691Z,-0.441895
2022-12-15T05:08:44.369Z,-0.462036
2022-12-15T05:09:57.306Z,-0.492249
2022-12-15T05:11:04.722Z,-0.492249
2022-12-15T05:12:13.425Z,-0.472107
2022-12-15T05:13:22.098Z,-0.492249
2022-12-15T05:14:31.771Z,-0.502319
2022-12-15T05:15:40.506Z,-0.502319
2022-12-15T05:16:49.140Z,-0.492249
2022-12-15T05:17:58.834Z,-0.492249
2022-12-15T05:19:08.530Z,-0.502319
2022-12-15T05:20:18.175Z,-0.472107
2022-12-15T05:21:27.833Z,-0.462036
2022-12-15T05:22:35.488Z,-0.462036
2022-12-15T05:23:44.188Z,-0.502319
2022-12-15T05:24:53.855Z,-0.522461
2022-12-15T05:26:03.523Z,-0.532532
2022-12-15T05:27:11.221Z,-0.492249
2022-12-15T05:28:19.879Z,-0.492249
2022-12-15T05:29:29.579Z,-0.492249
2022-12-15T05:30:39.261Z,-0.462036
2022-12-15T05:31:48.902Z,-0.462036
2022-12-15T05:32:58.566Z,-0.441895
2022-12-15T05:34:08.228Z,-0.502319
2022-12-15T05:35:17.941Z,-0.532532
2022-12-15T05:36:26.585Z,-0.532532
2022-12-15T05:37:36.296Z,-0.522461
2022-12-15T05:38:45.970Z,-0.532532
2022-12-15T05:39:55.703Z,-0.502319
2022-12-15T05:41:05.377Z,-0.532532
2022-12-15T05:42:15.058Z,-0.532532
2022-12-15T05:43:26.299Z,-0.502319
2022-12-15T05:44:32.391Z,-0.522461
2022-12-15T05:45:40.072Z,-0.502319
2022-12-15T05:46:48.875Z,-0.522461
2022-12-15T05:47:58.476Z,-0.522461
2022-12-15T05:49:06.131Z,-0.502319
2022-12-15T05:50:15.799Z,-0.492249
2022-12-15T05:51:24.498Z,-0.492249
2022-12-15T05:52:34.160Z,-0.492249
2022-12-15T05:53:44.800Z,-0.472107
2022-12-15T05:54:54.498Z,-0.472107
2022-12-15T05:56:04.166Z,-0.462036
2022-12-15T05:57:13.832Z,-0.462036
2022-12-15T05:58:21.529Z,-0.462036
2022-12-15T05:59:31.199Z,-0.462036
2022-12-15T06:00:39.861Z,-0.411682
2022-12-15T06:01:49.626Z,-0.431824
2022-12-15T06:02:59.275Z,-0.411682
2022-12-15T06:04:07.887Z,-0.391541
2022-12-15T06:05:17.555Z,-0.391541
2022-12-15T06:06:27.266Z,-0.411682
2022-12-15T06:07:34.904Z,-0.411682
2022-12-15T06:08:44.595Z,-0.462036
2022-12-15T06:09:54.304Z,-0.441895
2022-12-15T06:11:01.969Z,-0.462036
2022-12-15T06:12:11.659Z,-0.472107
2022-12-15T06:13:20.346Z,-0.472107
2022-12-15T06:14:28.990Z,-0.472107
2022-12-15T06:15:38.696Z,-0.38147
2022-12-15T06:16:50.634Z,-0.149841
2022-12-15T06:17:56.992Z,-0.069275
2022-12-15T06:19:06.641Z,-0.139771
2022-12-15T06:20:16.314Z,-0.250549
2022-12-15T06:21:26.033Z,-0.280762
2022-12-15T06:22:34.729Z,-0.290833
2022-12-15T06:23:44.362Z,-0.290833
2022-12-15T06:24:54.109Z,-0.310974
2022-12-15T06:26:03.768Z,-0.321045
2022-12-15T06:27:13.438Z,-0.351257
2022-12-15T06:28:23.097Z,-0.361328
2022-12-15T06:29:32.801Z,-0.351257
2022-12-15T06:30:42.479Z,-0.351257
2022-12-15T06:31:51.181Z,-0.341187
2022-12-15T06:33:00.847Z,-0.351257
2022-12-15T06:34:10.506Z,-0.38147
2022-12-15T06:35:19.179Z,-0.391541
2022-12-15T06:36:28.886Z,-0.462036
2022-12-15T06:37:38.533Z,-0.472107
2022-12-15T06:38:49.920Z,-0.462036
2022-12-15T06:39:56.854Z,-0.492249
2022-12-15T06:41:05.531Z,-0.532532
2022-12-15T06:42:14.203Z,-0.542603
2022-12-15T06:43:22.851Z,-0.542603
2022-12-15T06:44:32.561Z,-0.532532
2022-12-15T06:45:42.212Z,-0.542603
2022-12-15T06:46:51.977Z,-0.532532
2022-12-15T06:48:01.989Z,-0.502319
2022-12-15T06:49:10.326Z,-0.502319
2022-12-15T06:50:20.019Z,-0.502319
2022-12-15T06:51:29.708Z,-0.522461
2022-12-15T06:52:39.400Z,-0.492249
2022-12-15T06:53:49.258Z,-0.502319
2022-12-15T06:54:58.774Z,-0.502319
2022-12-15T06:56:06.465Z,-0.542603
2022-12-15T06:57:16.141Z,-0.592957
2022-12-15T06:58:25.832Z,-0.572815
2022-12-15T06:59:34.506Z,-0.562744
2022-12-15T07:00:44.199Z,-0.562744
2022-12-15T07:01:53.054Z,-0.542603
2022-12-15T07:03:02.704Z,-0.542603
2022-12-15T07:04:11.557Z,-0.572815
2022-12-15T07:05:19.892Z,-0.592957
2022-12-15T07:06:29.560Z,-0.592957
2022-12-15T07:07:37.225Z,-0.572815
2022-12-15T07:08:46.874Z,-0.572815
2022-12-15T07:09:56.563Z,-0.623169
2022-12-15T07:11:04.230Z,-0.653381
2022-12-15T07:12:13.893Z,-0.673523
2022-12-15T07:13:23.595Z,-0.683594
2022-12-15T07:14:32.266Z,-0.673523
2022-12-15T07:15:42.005Z,-0.683594
2022-12-15T07:16:50.600Z,-0.673523
2022-12-15T07:18:00.253Z,-0.643311
2022-12-15T07:19:09.967Z,-0.653381
2022-12-15T07:20:19.016Z,-0.653381
2022-12-15T07:21:29.309Z,-0.623169
2022-12-15T07:22:37.959Z,-0.613098
2022-12-15T07:23:56.538Z,-0.592957
2022-12-15T07:24:58.308Z,-0.572815
2022-12-15T07:26:11.210Z,-0.572815
2022-12-15T07:27:15.635Z,-0.592957
2022-12-15T07:28:25.873Z,-0.613098
2022-12-15T07:29:31.950Z,-0.592957
2022-12-15T07:30:41.643Z,-0.572815
2022-12-15T07:31:49.363Z,-0.572815
2022-12-15T07:32:58.970Z,-0.542603
2022-12-15T07:34:07.632Z,-0.532532
2022-12-15T07:35:16.295Z,-0.532532
2022-12-15T07:36:25.982Z,-0.522461
2022-12-15T07:37:34.645Z,-0.472107
2022-12-15T07:38:43.297Z,-0.472107
2022-12-15T07:39:52.939Z,-0.462036
2022-12-15T07:41:02.617Z,-0.411682
2022-12-15T07:42:12.430Z,-0.38147
2022-12-15T07:43:21.962Z,-0.361328
2022-12-15T07:44:31.634Z,-0.321045
2022-12-15T07:45:42.795Z,-0.341187
2022-12-15T07:46:51.960Z,-0.341187
2022-12-15T07:48:01.633Z,-0.341187
2022-12-15T07:49:11.312Z,-0.321045
2022-12-15T07:50:20.994Z,-0.290833
2022-12-15T07:51:30.664Z,-0.321045
2022-12-15T07:52:39.336Z,-0.351257
2022-12-15T07:53:47.002Z,-0.361328
2022-12-15T07:54:56.693Z,-0.361328
2022-12-15T07:56:08.322Z,-0.361328
2022-12-15T07:57:15.045Z,-0.38147
2022-12-15T07:58:24.698Z,-0.441895
2022-12-15T07:59:33.451Z,-0.411682
2022-12-15T08:00:48.524Z,-0.361328
2022-12-15T08:01:52.945Z,-0.321045
2022-12-15T08:03:02.563Z,-0.290833
2022-12-15T08:04:12.117Z,-0.290833
2022-12-15T08:05:20.841Z,-0.321045
2022-12-15T08:06:29.517Z,-0.26062
2022-12-15T08:07:39.208Z,-0.230408
2022-12-15T08:08:50.132Z,-0.210266
2022-12-15T08:09:56.532Z,-0.149841
2022-12-15T08:11:06.227Z,-0.149841
2022-12-15T08:12:14.890Z,-0.149841
2022-12-15T08:13:52.765Z,-0.139771
2022-12-15T08:14:35.221Z,-0.109558
2022-12-15T08:15:43.877Z,-0.1297
2022-12-15T08:16:53.586Z,-0.1297
2022-12-15T08:18:01.224Z,-0.149841
2022-12-15T08:19:10.890Z,-0.180054
2022-12-15T08:20:19.549Z,-0.169983
2022-12-15T08:21:28.193Z,-0.139771
2022-12-15T08:22:37.973Z,-0.069275
2022-12-15T08:23:46.624Z,-0.018921
2022-12-15T08:24:54.284Z,0.041504
2022-12-15T08:26:03.965Z,0.051575
2022-12-15T08:27:12.656Z,0.081787
2022-12-15T08:28:22.341Z,0.081787
2022-12-15T08:30:41.621Z,0.081787
2022-12-15T08:31:51.408Z,0.071716
2022-12-15T08:32:58.973Z,0.101929
2022-12-15T08:34:08.649Z,0.112
2022-12-15T08:35:39.198Z,0.071716
2022-12-15T08:36:28.997Z,0.041504
2022-12-15T08:37:38.662Z,0.031433
2022-12-15T08:38:48.348Z,0.051575
2022-12-15T08:39:58.062Z,0.081787
2022-12-15T08:41:07.771Z,0.112
2022-12-15T08:42:15.418Z,0.152283
2022-12-15T08:43:25.099Z,0.101929
2022-12-15T08:44:34.805Z,0.041504
2022-12-15T08:45:43.629Z,0.081787
2022-12-15T08:46:53.205Z,0.101929
2022-12-15T08:48:01.887Z,0.101929
2022-12-15T08:49:13.274Z,0.112
2022-12-15T08:50:22.208Z,0.162354
2022-12-15T08:51:30.905Z,0.212708
2022-12-15T08:52:40.572Z,0.232849
2022-12-15T08:53:51.280Z,0.283203
2022-12-15T08:54:59.878Z,0.263062
2022-12-15T08:56:09.540Z,0.283203
2022-12-15T08:57:18.226Z,0.313416
2022-12-15T08:58:26.905Z,0.36377
2022-12-15T08:59:36.567Z,0.393982
2022-12-15T09:00:46.280Z,0.434265
2022-12-15T09:01:54.981Z,0.404053
2022-12-15T09:03:04.571Z,0.404053
2022-12-15T09:04:13.283Z,0.37384
2022-12-15T09:05:22.920Z,0.414124
2022-12-15T09:06:31.584Z,0.434265
2022-12-15T09:07:40.233Z,0.414124
2022-12-15T09:08:50.916Z,0.404053
2022-12-15T09:09:59.584Z,0.404053
2022-12-15T09:11:08.283Z,0.313416
2022-12-15T09:12:17.959Z,0.283203
2022-12-15T09:13:25.609Z,0.293274
2022-12-15T09:14:36.289Z,0.313416
2022-12-15T09:16:08.686Z,0.323486
2022-12-15T09:16:55.738Z,0.343628
2022-12-15T09:18:05.347Z,0.37384
2022-12-15T09:19:15.032Z,0.393982
2022-12-15T09:20:24.768Z,0.393982
2022-12-15T09:21:33.404Z,0.414124
2022-12-15T09:22:43.074Z,0.444336
2022-12-15T09:23:52.754Z,0.444336
2022-12-15T09:25:00.400Z,0.414124
2022-12-15T09:26:10.152Z,0.37384
2022-12-15T09:27:18.807Z,0.343628
2022-12-15T09:28:28.475Z,0.323486
2022-12-15T09:29:39.161Z,0.404053
2022-12-15T09:30:48.879Z,0.414124
2022-12-15T09:31:58.623Z,0.434265
2022-12-15T09:33:09.262Z,0.474548
2022-12-15T09:34:18.936Z,0.474548
2022-12-15T09:35:28.608Z,0.524902
2022-12-15T09:36:37.278Z,0.545044
2022-12-15T09:37:50.057Z,0.595398
2022-12-15T09:38:54.600Z,0.645752
2022-12-15T09:40:03.246Z,0.686035
2022-12-15T09:41:11.914Z,0.736389
2022-12-15T09:42:21.595Z,0.736389
2022-12-15T09:43:40.212Z,0.726318
2022-12-15T09:44:39.916Z,0.756531
2022-12-15T09:45:49.683Z,0.756531
2022-12-15T09:46:58.267Z,0.736389
2022-12-15T09:48:07.951Z,0.756531
2022-12-15T09:49:16.686Z,0.796814
2022-12-15T09:50:25.344Z,0.796814
2022-12-15T09:51:35.012Z,0.837097
2022-12-15T09:52:43.672Z,0.837097
2022-12-15T09:53:54.962Z,0.837097
2022-12-15T09:55:03.080Z,0.837097
2022-12-15T09:56:11.743Z,0.806885
2022-12-15T09:57:21.408Z,0.806885
2022-12-15T09:58:30.102Z,0.766602
2022-12-15T09:59:39.793Z,0.696106
2022-12-15T10:00:52.414Z,0.696106
2022-12-15T10:01:58.180Z,0.736389
2022-12-15T10:03:07.946Z,0.726318
2022-12-15T10:04:16.626Z,0.655823
2022-12-15T10:05:33.702Z,0.62561
2022-12-15T10:06:35.804Z,0.645752
2022-12-15T10:07:43.468Z,0.555115
2022-12-15T10:08:53.125Z,0.524902
2022-12-15T10:10:02.796Z,0.474548
2022-12-15T10:11:12.463Z,0.504761
2022-12-15T10:12:22.158Z,0.524902
2022-12-15T10:13:31.115Z,0.555115
2022-12-15T10:14:39.490Z,0.585327
2022-12-15T10:15:50.345Z,0.61554
2022-12-15T10:16:59.817Z,0.585327
2022-12-15T10:18:08.498Z,0.61554
2022-12-15T10:19:18.176Z,0.62561
2022-12-15T10:20:26.916Z,0.686035
2022-12-15T10:21:36.579Z,0.756531
2022-12-15T10:22:50.226Z,0.756531
2022-12-15T10:23:57.078Z,0.726318
2022-12-15T10:25:10.946Z,0.61554
2022-12-15T10:26:16.404Z,0.61554
2022-12-15T10:27:26.095Z,0.645752
2022-12-15T10:28:35.790Z,0.686035
2022-12-15T10:29:44.597Z,0.696106
2022-12-15T10:30:54.208Z,0.756531
2022-12-15T10:32:03.828Z,0.796814
2022-12-15T10:33:11.539Z,0.837097
2022-12-15T10:34:20.234Z,0.837097
2022-12-15T10:35:28.908Z,0.837097
2022-12-15T10:36:38.614Z,0.86731
2022-12-15T10:37:48.271Z,0.87738
2022-12-15T10:38:55.972Z,0.917664
2022-12-15T10:40:05.682Z,0.947876
2022-12-15T10:41:15.414Z,0.978088
2022-12-15T10:42:24.095Z,0.937805
2022-12-15T10:43:35.214Z,0.937805
2022-12-15T10:44:42.533Z,0.937805
2022-12-15T10:45:52.232Z,0.957947
2022-12-15T10:47:01.894Z,0.947876
2022-12-15T10:48:11.599Z,0.947876
2022-12-15T10:49:21.289Z,0.947876
2022-12-15T10:50:29.970Z,0.957947
2022-12-15T10:51:39.631Z,1.008301
2022-12-15T10:52:49.364Z,1.038513
2022-12-15T10:53:58.037Z,1.008301
2022-12-15T10:55:07.717Z,1.038513
2022-12-15T10:56:17.384Z,1.018372
2022-12-15T10:57:28.056Z,1.038513
2022-12-15T10:58:37.804Z,1.038513
2022-12-15T10:59:47.494Z,1.038513
2022-12-15T11:00:56.171Z,1.008301
2022-12-15T11:02:06.021Z,1.008301
2022-12-15T11:03:14.647Z,1.048584
2022-12-15T11:04:24.247Z,1.078796
2022-12-15T11:05:33.921Z,1.12915
2022-12-15T11:06:43.604Z,1.189575
2022-12-15T11:07:53.323Z,1.239929
2022-12-15T11:09:02.975Z,1.300354
2022-12-15T11:10:11.667Z,1.239929
2022-12-15T11:11:25.923Z,1.199646
2022-12-15T11:12:31.036Z,1.169434
2022-12-15T11:13:41.085Z,1.159363
2022-12-15T11:14:51.535Z,1.098938
2022-12-15T11:16:00.048Z,1.11908
2022-12-15T11:17:09.745Z,1.12915
2022-12-15T11:18:17.402Z,1.139221
2022-12-15T11:19:27.077Z,1.098938
2022-12-15T11:20:36.774Z,1.11908
2022-12-15T11:21:47.469Z,1.12915
2022-12-15T11:22:57.164Z,1.139221
2022-12-15T11:24:06.808Z,1.189575
2022-12-15T11:25:15.454Z,1.199646
2022-12-15T11:26:25.151Z,1.280212
2022-12-15T11:27:34.835Z,1.310425
2022-12-15T11:28:44.527Z,1.340637
2022-12-15T11:29:54.177Z,1.320496
2022-12-15T11:31:02.849Z,1.300354
2022-12-15T11:32:12.553Z,1.280212
2022-12-15T11:33:22.283Z,1.320496
2022-12-15T11:34:31.963Z,1.37085
2022-12-15T11:35:41.755Z,1.37085
2022-12-15T11:36:51.345Z,1.401062
2022-12-15T11:38:01.064Z,1.421204
2022-12-15T11:39:10.772Z,1.441345
2022-12-15T11:40:19.507Z,1.481628
2022-12-15T11:41:29.133Z,1.401062
2022-12-15T11:42:36.809Z,1.300354
2022-12-15T11:43:46.476Z,1.300354
2022-12-15T11:44:56.169Z,1.280212
2022-12-15T11:46:04.833Z,1.280212
2022-12-15T11:47:13.494Z,1.300354
2022-12-15T11:48:23.174Z,1.310425
2022-12-15T11:49:33.847Z,1.320496
2022-12-15T11:50:42.508Z,1.310425
2022-12-15T11:51:53.175Z,1.260071
2022-12-15T11:53:02.880Z,1.12915
2022-12-15T11:54:12.492Z,1.11908
2022-12-15T11:55:25.860Z,1.11908
2022-12-15T11:56:30.839Z,1.11908
2022-12-15T11:57:40.510Z,1.11908
2022-12-15T11:58:49.185Z,1.159363
2022-12-15T11:59:58.839Z,1.189575
2022-12-15T12:01:08.523Z,1.199646
2022-12-15T12:02:17.388Z,1.229858
2022-12-15T12:03:27.037Z,1.239929
2022-12-15T12:04:36.617Z,1.219788
2022-12-15T12:05:47.301Z,1.139221
2022-12-15T12:06:57.002Z,1.159363
2022-12-15T12:08:06.739Z,1.219788
2022-12-15T12:09:16.373Z,1.229858
2022-12-15T12:10:25.040Z,1.260071
2022-12-15T12:11:33.773Z,1.310425
2022-12-15T12:12:43.370Z,1.300354
2022-12-15T12:13:52.074Z,1.300354
2022-12-15T12:15:02.735Z,1.219788
2022-12-15T12:16:12.422Z,1.239929
2022-12-15T12:17:21.095Z,1.189575
2022-12-15T12:18:31.132Z,1.159363
2022-12-15T12:19:38.487Z,1.12915
2022-12-15T12:20:48.124Z,1.159363
2022-12-15T12:21:57.789Z,1.189575
2022-12-15T12:23:07.448Z,1.169434
2022-12-15T12:24:17.186Z,1.12915
2022-12-15T12:25:26.877Z,1.139221
2022-12-15T12:26:35.539Z,1.159363
2022-12-15T12:27:45.226Z,1.139221
2022-12-15T12:28:55.871Z,1.159363
2022-12-15T12:30:05.607Z,1.199646
2022-12-15T12:31:15.335Z,1.219788
2022-12-15T12:32:24.014Z,1.229858
2022-12-15T12:33:33.710Z,1.219788
2022-12-15T12:34:42.382Z,1.199646
2022-12-15T12:35:52.055Z,1.199646
2022-12-15T12:37:01.799Z,1.199646
2022-12-15T12:38:11.456Z,1.189575
2022-12-15T12:39:21.182Z,1.219788
2022-12-15T12:40:30.840Z,1.239929
2022-12-15T12:41:40.569Z,1.260071
2022-12-15T12:42:51.078Z,1.310425
2022-12-15T12:44:06.325Z,1.300354
2022-12-15T12:45:15.017Z,1.260071
2022-12-15T12:46:24.666Z,1.300354
2022-12-15T12:47:32.350Z,1.229858
2022-12-15T12:48:42.108Z,1.229858
2022-12-15T12:49:51.771Z,1.239929
2022-12-15T12:51:00.443Z,1.260071
2022-12-15T12:52:10.095Z,1.300354
2022-12-15T12:53:18.753Z,1.260071
2022-12-15T12:54:28.477Z,1.229858
2022-12-15T12:55:38.130Z,1.189575
2022-12-15T12:56:48.649Z,1.12915
2022-12-15T12:57:55.451Z,1.159363
2022-12-15T12:59:05.149Z,1.12915
2022-12-15T13:00:12.883Z,1.12915
2022-12-15T13:01:22.836Z,1.12915
2022-12-15T13:02:32.278Z,1.12915
2022-12-15T13:03:41.902Z,1.11908
2022-12-15T13:04:51.574Z,1.078796
2022-12-15T13:05:59.257Z,1.078796
2022-12-15T13:08:17.581Z,1.078796
2022-12-15T13:09:26.246Z,1.078796
2022-12-15T13:10:35.982Z,1.048584
2022-12-15T13:11:46.671Z,0.978088
2022-12-15T13:12:55.341Z,0.86731
2022-12-15T13:14:07.146Z,0.806885
2022-12-15T13:15:15.669Z,0.756531
2022-12-15T13:16:25.336Z,0.736389
2022-12-15T13:17:36.106Z,0.766602
2022-12-15T13:18:46.775Z,0.686035
2022-12-15T13:19:56.432Z,0.686035
2022-12-15T13:21:04.104Z,0.686035
2022-12-15T13:22:13.773Z,0.645752
2022-12-15T13:23:23.499Z,0.61554
2022-12-15T13:24:31.191Z,0.62561
2022-12-15T13:25:40.877Z,0.585327
2022-12-15T13:26:50.589Z,0.504761
2022-12-15T13:27:59.289Z,0.474548
2022-12-15T13:29:08.995Z,0.444336
2022-12-15T13:30:17.664Z,0.414124
2022-12-15T13:31:26.511Z,0.404053